Maersk Windhoek — 3FWJ3 — position and weather

sailwx.info

Track history (hours):
 
Tides and Currents Weather Stations Pressure Air Temp Water Temp Dewpoint Dewpoint Depression Visibility Wind Speed Wind Dir Waves Ship Positions

Maersk Windhoek

Last reported at 2015-Mar-14 13:09 UTC. Time now 2015-Mar-27 13:12 UTC.
Position N 27°36' W 013°58'.
Warning: this ship's position is 13 days out of date.

Length 172 m; draft 9.2 m.

Type: Ship (hazmat cat C). MMSI: 370431000.

Date/timePositionNaut miles runAvg speedWind from/ knotsBaromVisibWave heightAir tempDewpointWater temp
2015-Mar-14 13:09N 27°36' W 013°58'1216.6
2015-Mar-14 12:27N 27°45' W 013°50'1616.9
2015-Mar-14 11:32N 27°57' W 013°38'1916.4
2015-Mar-14 10:23N 28°13' W 013°27'1515.9
2015-Mar-14 09:27N 28°25' W 013°17'1516.6
2015-Mar-14 08:33N 28°38' W 013°08'1816.7
2015-Mar-14 07:27N 28°54' W 012°57'52816.5
2015-Mar-12 23:32N 35°46' W 006°27'1616.3
2015-Mar-12 22:32N 35°57' W 006°12'2014.7
2015-Mar-12 21:11N 35°58' W 005°48'913.5
2015-Mar-12 20:32N 35°58' W 005°37'5 0.3
2015-Mar-12 03:33N 35°59' W 005°31'1414.1
2015-Mar-12 02:33N 36°04' W 005°15'20 2.9
2015-Mar-11 19:33N 36°16' W 004°54'0 0.2
2015-Mar-11 18:33N 36°15' W 004°54'0 0.3
2015-Mar-11 17:04N 36°16' W 004°54'2 0.5
2015-Mar-11 13:27N 36°15' W 004°56'9 0.3
2015-Mar-10 09:31N 36°13' W 005°07'9 9.1
2015-Mar-10 08:33N 36°07' W 005°15'8 8.0
2015-Mar-10 07:32N 36°09' W 005°25'0 0.2
2015-Mar-10 06:32N 36°09' W 005°25'0 0.1
2015-Mar-10 05:32N 36°09' W 005°25'0 0.1
2015-Mar-10 04:26N 36°09' W 005°25'0 0.0
2015-Mar-10 03:32N 36°09' W 005°25'0 0.0
2015-Mar-10 00:29N 36°09' W 005°25'0 0.0
2015-Mar-09 23:26N 36°09' W 005°25'0 0.0
2015-Mar-09 22:32N 36°09' W 005°25'0 0.1
2015-Mar-09 21:29N 36°09' W 005°25'0 0.0
2015-Mar-09 20:20N 36°09' W 005°25'0 0.1
2015-Mar-09 19:23N 36°09' W 005°25'0 0.1
2015-Mar-09 18:32N 36°09' W 005°25'0 0.0
2015-Mar-09 17:32N 36°09' W 005°25'0 0.0
2015-Mar-09 16:32N 36°09' W 005°25'0 0.0
2015-Mar-09 15:32N 36°09' W 005°25'0 0.1
2015-Mar-09 14:20N 36°09' W 005°25'0 0.1
2015-Mar-09 13:32N 36°09' W 005°25'0 0.0
2015-Mar-09 12:32N 36°09' W 005°25'0 0.0
2015-Mar-09 11:32N 36°09' W 005°25'0 0.0
2015-Mar-09 10:32N 36°09' W 005°25'0 0.0
2015-Mar-09 09:32N 36°09' W 005°25'0 0.0
2015-Mar-09 08:32N 36°09' W 005°25'0 0.0
2015-Mar-09 07:32N 36°09' W 005°25'0 0.1
2015-Mar-09 06:32N 36°09' W 005°25'0 0.1
2015-Mar-09 05:32N 36°09' W 005°25'0 0.0
2015-Mar-09 04:32N 36°09' W 005°25'0 0.0
2015-Mar-09 03:32N 36°09' W 005°25'0 0.0
2015-Mar-09 02:32N 36°09' W 005°25'0 0.1
2015-Mar-09 01:32N 36°09' W 005°25'0 0.0
2015-Mar-09 00:32N 36°09' W 005°25'0 0.0
2015-Mar-08 23:32N 36°09' W 005°25'0 0.0
2015-Mar-08 22:32N 36°09' W 005°25'0 0.0
2015-Mar-08 21:32N 36°09' W 005°25'0 0.0
2015-Mar-08 20:32N 36°09' W 005°25'0 0.0
2015-Mar-08 19:17N 36°09' W 005°25'0 0.0
2015-Mar-08 18:32N 36°09' W 005°25'0 0.0
2015-Mar-08 17:32N 36°09' W 005°25'0 0.0
2015-Mar-08 16:26N 36°09' W 005°25'0 0.0
2015-Mar-08 15:32N 36°09' W 005°25'0 0.0
2015-Mar-08 14:32N 36°09' W 005°25'0 0.0
2015-Mar-08 13:32N 36°09' W 005°25'0 0.0
2015-Mar-08 12:32N 36°09' W 005°25'0 0.1
2015-Mar-08 11:32N 36°09' W 005°25'0 0.1
2015-Mar-08 10:11N 36°09' W 005°25'0 0.0
2015-Mar-08 09:32N 36°09' W 005°25'0 0.0
2015-Mar-08 08:26N 36°09' W 005°25'0 0.0
2015-Mar-08 07:29N 36°09' W 005°25'0 0.0
2015-Mar-08 06:32N 36°09' W 005°25'0 0.1
2015-Mar-08 05:29N 36°09' W 005°25'0 0.1
2015-Mar-08 04:32N 36°09' W 005°25'0 0.0
2015-Mar-08 03:20N 36°09' W 005°25'0 0.1
2015-Mar-08 02:32N 36°09' W 005°25'0 0.0
2015-Mar-08 01:33N 36°09' W 005°25'0 0.0
2015-Mar-08 00:14N 36°09' W 005°25'0 0.0
2015-Mar-07 23:08N 36°09' W 005°25'0 0.2
2015-Mar-07 22:32N 36°09' W 005°25'0 0.0
2015-Mar-07 21:23N 36°09' W 005°25'0 0.0
2015-Mar-07 20:23N 36°09' W 005°25'0 0.0
2015-Mar-07 19:32N 36°09' W 005°25'0 0.0
2015-Mar-07 18:32N 36°09' W 005°25'0 0.0
2015-Mar-07 17:32N 36°09' W 005°25'0 0.0
2015-Mar-07 16:32N 36°09' W 005°25'0 0.0
2015-Mar-07 15:29N 36°09' W 005°25'0 0.0
2015-Mar-07 14:32N 36°09' W 005°25'0 0.0
2015-Mar-07 13:32N 36°09' W 005°25'0 0.1
2015-Mar-07 12:32N 36°09' W 005°25'0 0.0
2015-Mar-07 11:32N 36°09' W 005°25'0 0.0
2015-Mar-07 10:32N 36°09' W 005°25'0 0.0
2015-Mar-07 09:32N 36°09' W 005°25'0 0.0
2015-Mar-07 08:32N 36°09' W 005°25'1 1.5
2015-Mar-07 07:34N 36°08' W 005°26'0 0.0
2015-Mar-07 06:30N 36°08' W 005°26'0 0.0
2015-Mar-07 05:33N 36°08' W 005°26'0 0.0
2015-Mar-07 04:33N 36°08' W 005°26'0 0.0
2015-Mar-07 03:33N 36°08' W 005°26'0 0.0
2015-Mar-07 02:33N 36°08' W 005°26'0 0.0
2015-Mar-07 01:30N 36°08' W 005°26'0 0.0
2015-Mar-07 00:30N 36°08' W 005°26'0 0.0
2015-Mar-06 23:33N 36°08' W 005°26'0 0.0
2015-Mar-06 21:33N 36°08' W 005°26'0 0.0
2015-Mar-06 20:33N 36°08' W 005°26'0 0.0
2015-Mar-06 19:33N 36°08' W 005°26'0 0.0
2015-Mar-06 18:33N 36°08' W 005°26'0 0.0
2015-Mar-06 17:33N 36°08' W 005°26'0 0.0
2015-Mar-06 16:33N 36°08' W 005°26'0 0.0
2015-Mar-06 15:33N 36°08' W 005°26'0 0.2
2015-Mar-06 14:33N 36°08' W 005°26'5 4.5
2015-Mar-06 13:33N 36°05' W 005°23'9 8.5
2015-Mar-06 12:33N 36°03' W 005°12'20217.5
2015-Mar-06 01:03N 37°06' W 001°14'1217.8
2015-Mar-06 00:24N 37°14' W 001°03'1618.3
2015-Mar-05 23:33N 37°24' W 000°48'1818.3
2015-Mar-05 22:33N 37°37' W 000°31'1818.1
2015-Mar-05 21:33N 37°52' W 000°19'3618.1
2015-Mar-05 19:33N 38°22' E 000°06'6215.1
2015-Mar-05 15:25N 39°23' W 000°14'2 2.2
2015-Mar-05 14:31N 39°23' W 000°17'0 0.1
2015-Mar-05 13:22N 39°23' W 000°17'0 0.1
2015-Mar-05 12:31N 39°23' W 000°16'0 0.0
2015-Mar-05 11:31N 39°23' W 000°16'0 0.0
2015-Mar-05 10:31N 39°23' W 000°16'0 0.0
2015-Mar-05 09:28N 39°23' W 000°17'0 0.0
2015-Mar-05 08:31N 39°23' W 000°17'0 0.0
2015-Mar-05 07:31N 39°23' W 000°17'0 0.0
2015-Mar-05 06:22N 39°23' W 000°17'0 0.0
2015-Mar-05 05:22N 39°23' W 000°17'0 0.0
2015-Mar-05 04:22N 39°23' W 000°17'0 0.0
2015-Mar-05 03:22N 39°23' W 000°17'0 0.0
2015-Mar-05 02:31N 39°23' W 000°16'0 0.0
2015-Mar-05 01:31N 39°23' W 000°16'0 0.0
2015-Mar-04 22:10N 39°23' W 000°16'0 0.1
2015-Mar-04 21:31N 39°23' W 000°16'0 0.0
2015-Mar-04 20:28N 39°23' W 000°16'0 0.0
2015-Mar-04 19:31N 39°23' W 000°16'0 0.1
2015-Mar-04 18:31N 39°23' W 000°17'0 0.0
2015-Mar-04 17:31N 39°23' W 000°17'0 0.0
2015-Mar-04 15:25N 39°23' W 000°17'0 0.0
2015-Mar-04 13:19N 39°23' W 000°17'  
Track history (hours):
 
Tides and Currents Weather Stations Pressure Air Temp Water Temp Dewpoint Dewpoint Depression Visibility Wind Speed Wind Dir Waves Ship Positions

Maersk Windhoek

Last reported at 2015-Mar-14 13:09 UTC. Time now 2015-Mar-27 13:12 UTC.
Position N 27°36' W 013°58'.
Warning: this ship's position is 13 days out of date.

Length 172 m; draft 9.2 m.

Type: Ship (hazmat cat C). MMSI: 370431000.

Date/timePositionNaut miles runAvg speedWind from/ knotsBaromVisibWave heightAir tempDewpointWater temp
2015-Mar-14 13:09N 27°36' W 013°58'1216.6
2015-Mar-14 12:27N 27°45' W 013°50'1616.9
2015-Mar-14 11:32N 27°57' W 013°38'1916.4
2015-Mar-14 10:23N 28°13' W 013°27'1515.9
2015-Mar-14 09:27N 28°25' W 013°17'1516.6
2015-Mar-14 08:33N 28°38' W 013°08'1816.7
2015-Mar-14 07:27N 28°54' W 012°57'52816.5
2015-Mar-12 23:32N 35°46' W 006°27'1616.3
2015-Mar-12 22:32N 35°57' W 006°12'2014.7
2015-Mar-12 21:11N 35°58' W 005°48'913.5
2015-Mar-12 20:32N 35°58' W 005°37'5 0.3
2015-Mar-12 03:33N 35°59' W 005°31'1414.1
2015-Mar-12 02:33N 36°04' W 005°15'20 2.9
2015-Mar-11 19:33N 36°16' W 004°54'0 0.2
2015-Mar-11 18:33N 36°15' W 004°54'0 0.3
2015-Mar-11 17:04N 36°16' W 004°54'2 0.5
2015-Mar-11 13:27N 36°15' W 004°56'9 0.3
2015-Mar-10 09:31N 36°13' W 005°07'9 9.1
2015-Mar-10 08:33N 36°07' W 005°15'8 8.0
2015-Mar-10 07:32N 36°09' W 005°25'0 0.2
2015-Mar-10 06:32N 36°09' W 005°25'0 0.1
2015-Mar-10 05:32N 36°09' W 005°25'0 0.1
2015-Mar-10 04:26N 36°09' W 005°25'0 0.0
2015-Mar-10 03:32N 36°09' W 005°25'0 0.0
2015-Mar-10 00:29N 36°09' W 005°25'0 0.0
2015-Mar-09 23:26N 36°09' W 005°25'0 0.0
2015-Mar-09 22:32N 36°09' W 005°25'0 0.1
2015-Mar-09 21:29N 36°09' W 005°25'0 0.0
2015-Mar-09 20:20N 36°09' W 005°25'0 0.1
2015-Mar-09 19:23N 36°09' W 005°25'0 0.1
2015-Mar-09 18:32N 36°09' W 005°25'0 0.0
2015-Mar-09 17:32N 36°09' W 005°25'0 0.0
2015-Mar-09 16:32N 36°09' W 005°25'0 0.0
2015-Mar-09 15:32N 36°09' W 005°25'0 0.1
2015-Mar-09 14:20N 36°09' W 005°25'0 0.1
2015-Mar-09 13:32N 36°09' W 005°25'0 0.0
2015-Mar-09 12:32N 36°09' W 005°25'0 0.0
2015-Mar-09 11:32N 36°09' W 005°25'0 0.0
2015-Mar-09 10:32N 36°09' W 005°25'0 0.0
2015-Mar-09 09:32N 36°09' W 005°25'0 0.0
2015-Mar-09 08:32N 36°09' W 005°25'0 0.0
2015-Mar-09 07:32N 36°09' W 005°25'0 0.1
2015-Mar-09 06:32N 36°09' W 005°25'0 0.1
2015-Mar-09 05:32N 36°09' W 005°25'0 0.0
2015-Mar-09 04:32N 36°09' W 005°25'0 0.0
2015-Mar-09 03:32N 36°09' W 005°25'0 0.0
2015-Mar-09 02:32N 36°09' W 005°25'0 0.1
2015-Mar-09 01:32N 36°09' W 005°25'0 0.0
2015-Mar-09 00:32N 36°09' W 005°25'0 0.0
2015-Mar-08 23:32N 36°09' W 005°25'0 0.0
2015-Mar-08 22:32N 36°09' W 005°25'0 0.0
2015-Mar-08 21:32N 36°09' W 005°25'0 0.0
2015-Mar-08 20:32N 36°09' W 005°25'0 0.0
2015-Mar-08 19:17N 36°09' W 005°25'0 0.0
2015-Mar-08 18:32N 36°09' W 005°25'0 0.0
2015-Mar-08 17:32N 36°09' W 005°25'0 0.0
2015-Mar-08 16:26N 36°09' W 005°25'0 0.0
2015-Mar-08 15:32N 36°09' W 005°25'0 0.0
2015-Mar-08 14:32N 36°09' W 005°25'0 0.0
2015-Mar-08 13:32N 36°09' W 005°25'0 0.0
2015-Mar-08 12:32N 36°09' W 005°25'0 0.1
2015-Mar-08 11:32N 36°09' W 005°25'0 0.1
2015-Mar-08 10:11N 36°09' W 005°25'0 0.0
2015-Mar-08 09:32N 36°09' W 005°25'0 0.0
2015-Mar-08 08:26N 36°09' W 005°25'0 0.0
2015-Mar-08 07:29N 36°09' W 005°25'0 0.0
2015-Mar-08 06:32N 36°09' W 005°25'0 0.1
2015-Mar-08 05:29N 36°09' W 005°25'0 0.1
2015-Mar-08 04:32N 36°09' W 005°25'0 0.0
2015-Mar-08 03:20N 36°09' W 005°25'0 0.1
2015-Mar-08 02:32N 36°09' W 005°25'0 0.0
2015-Mar-08 01:33N 36°09' W 005°25'0 0.0
2015-Mar-08 00:14N 36°09' W 005°25'0 0.0
2015-Mar-07 23:08N 36°09' W 005°25'0 0.2
2015-Mar-07 22:32N 36°09' W 005°25'0 0.0
2015-Mar-07 21:23N 36°09' W 005°25'0 0.0
2015-Mar-07 20:23N 36°09' W 005°25'0 0.0
2015-Mar-07 19:32N 36°09' W 005°25'0 0.0
2015-Mar-07 18:32N 36°09' W 005°25'0 0.0
2015-Mar-07 17:32N 36°09' W 005°25'0 0.0
2015-Mar-07 16:32N 36°09' W 005°25'0 0.0
2015-Mar-07 15:29N 36°09' W 005°25'0 0.0
2015-Mar-07 14:32N 36°09' W 005°25'0 0.0
2015-Mar-07 13:32N 36°09' W 005°25'0 0.1
2015-Mar-07 12:32N 36°09' W 005°25'0 0.0
2015-Mar-07 11:32N 36°09' W 005°25'0 0.0
2015-Mar-07 10:32N 36°09' W 005°25'0 0.0
2015-Mar-07 09:32N 36°09' W 005°25'0 0.0
2015-Mar-07 08:32N 36°09' W 005°25'1 1.5
2015-Mar-07 07:34N 36°08' W 005°26'0 0.0
2015-Mar-07 06:30N 36°08' W 005°26'0 0.0
2015-Mar-07 05:33N 36°08' W 005°26'0 0.0
2015-Mar-07 04:33N 36°08' W 005°26'0 0.0
2015-Mar-07 03:33N 36°08' W 005°26'0 0.0
2015-Mar-07 02:33N 36°08' W 005°26'0 0.0
2015-Mar-07 01:30N 36°08' W 005°26'0 0.0
2015-Mar-07 00:30N 36°08' W 005°26'0 0.0
2015-Mar-06 23:33N 36°08' W 005°26'0 0.0
2015-Mar-06 21:33N 36°08' W 005°26'0 0.0
2015-Mar-06 20:33N 36°08' W 005°26'0 0.0
2015-Mar-06 19:33N 36°08' W 005°26'0 0.0
2015-Mar-06 18:33N 36°08' W 005°26'0 0.0
2015-Mar-06 17:33N 36°08' W 005°26'0 0.0
2015-Mar-06 16:33N 36°08' W 005°26'0 0.0
2015-Mar-06 15:33N 36°08' W 005°26'0 0.2
2015-Mar-06 14:33N 36°08' W 005°26'5 4.5
2015-Mar-06 13:33N 36°05' W 005°23'9 8.5
2015-Mar-06 12:33N 36°03' W 005°12'20217.5
2015-Mar-06 01:03N 37°06' W 001°14'1217.8
2015-Mar-06 00:24N 37°14' W 001°03'1618.3
2015-Mar-05 23:33N 37°24' W 000°48'1818.3
2015-Mar-05 22:33N 37°37' W 000°31'1818.1
2015-Mar-05 21:33N 37°52' W 000°19'3618.1
2015-Mar-05 19:33N 38°22' E 000°06'6215.1
2015-Mar-05 15:25N 39°23' W 000°14'2 2.2
2015-Mar-05 14:31N 39°23' W 000°17'0 0.1
2015-Mar-05 13:22N 39°23' W 000°17'0 0.1
2015-Mar-05 12:31N 39°23' W 000°16'0 0.0
2015-Mar-05 11:31N 39°23' W 000°16'0 0.0
2015-Mar-05 10:31N 39°23' W 000°16'0 0.0
2015-Mar-05 09:28N 39°23' W 000°17'0 0.0
2015-Mar-05 08:31N 39°23' W 000°17'0 0.0
2015-Mar-05 07:31N 39°23' W 000°17'0 0.0
2015-Mar-05 06:22N 39°23' W 000°17'0 0.0
2015-Mar-05 05:22N 39°23' W 000°17'0 0.0
2015-Mar-05 04:22N 39°23' W 000°17'0 0.0
2015-Mar-05 03:22N 39°23' W 000°17'0 0.0
2015-Mar-05 02:31N 39°23' W 000°16'0 0.0
2015-Mar-05 01:31N 39°23' W 000°16'0 0.0
2015-Mar-04 22:10N 39°23' W 000°16'0 0.1
2015-Mar-04 21:31N 39°23' W 000°16'0 0.0
2015-Mar-04 20:28N 39°23' W 000°16'0 0.0
2015-Mar-04 19:31N 39°23' W 000°16'0 0.1
2015-Mar-04 18:31N 39°23' W 000°17'0 0.0
2015-Mar-04 17:31N 39°23' W 000°17'0 0.0
2015-Mar-04 15:25N 39°23' W 000°17'0 0.0
2015-Mar-04 13:19N 39°23' W 000°17'  

Dump ship's entire track history